Temp: 17.8°C   Baro: 1015.4mb
  Wind: 6.0mph   Dir: NNW (338°)
  Rain: 9.6mm (0.0mm/hr)
  Solar: 677W/m2  Hum: 67%
 
Bath Spa Weather Historical Data
Daily Summary for July 10, 2019 Units:  Metric    English   Both
Next Day »
Daily Weekly Monthly Yearly Custom
  High: Low: Average:
Temperature: 23.9 °C 14.3 °C 18.9 °C
Dew Point: 15.5 °C 11.1 °C 13.7 °C
Humidity: 92% 56% 73%
Wind Speed: 20.9km/h 0.0km/h 5km/h
Wind Gust: 22.5km/h - -
Wind direction- - WNW
Pressure: 1020.5 hPa 1015.1 hPa -
Precipitation: 0.0 mm    
Historical Graphs
 
 
Tabular Data for July 10, 2019
Time Temperature Dew Point Pressure Wind direction Wind Speed Wind Gust Humidity Rainfall Rate (Hourly) solar
00:04 17.2 °C 14.3 °C 1020.5 hPa Calm   1.6 km/h 83% 0.0 mm 0.00 W/m2
00:09 16.9 °C 14.0 °C 1020.5 hPa WNW 4.7 km/h 6.4 km/h 83% 0.0 mm 0.00 W/m2
00:14 16.8 °C 13.9 °C 1020.5 hPa WNW 4.7 km/h 4.8 km/h 83% 0.0 mm 0.00 W/m2
00:19 16.7 °C 13.8 °C 1020.5 hPa WNW 1.4 km/h 6.4 km/h 83% 0.0 mm 0.00 W/m2
00:24 16.6 °C 13.7 °C 1020.5 hPa WNW 1.4 km/h 8.0 km/h 83% 0.0 mm 0.00 W/m2
00:29 16.5 °C 13.6 °C 1020.5 hPa WNW 1.4 km/h 8.0 km/h 83% 0.0 mm 0.00 W/m2
00:34 16.5 °C 13.6 °C 1020.5 hPa WNW 1.4 km/h 6.4 km/h 83% 0.0 mm 0.00 W/m2
00:39 16.4 °C 13.5 °C 1020.5 hPa Calm   4.8 km/h 83% 0.0 mm 0.00 W/m2
00:44 16.3 °C 13.4 °C 1020.2 hPa Calm   3.2 km/h 83% 0.0 mm 0.00 W/m2
00:49 16.3 °C 13.4 °C 1020.2 hPa WNW 1.4 km/h 4.8 km/h 83% 0.0 mm 0.00 W/m2
00:54 16.3 °C 13.4 °C 1020.2 hPa Calm   4.8 km/h 83% 0.0 mm 0.00 W/m2
00:59 16.2 °C 13.3 °C 1020.2 hPa WNW 3.2 km/h 4.8 km/h 83% 0.0 mm 0.00 W/m2
01:04 16.2 °C 13.3 °C 1020.2 hPa Calm   3.2 km/h 83% 0.0 mm 0.00 W/m2
01:09 16.2 °C 13.5 °C 1020.2 hPa Calm   1.6 km/h 84% 0.0 mm 0.00 W/m2
01:14 16.2 °C 13.5 °C 1020.2 hPa Calm     84% 0.0 mm 0.00 W/m2
01:19 16.1 °C 13.4 °C 1020.2 hPa Calm     84% 0.0 mm 0.00 W/m2
01:24 16.0 °C 13.3 °C 1020.2 hPa Calm     84% 0.0 mm 0.00 W/m2
01:29 15.9 °C 13.2 °C 1020.2 hPa Calm     84% 0.0 mm 0.00 W/m2
01:34 15.8 °C 13.1 °C 1020.2 hPa Calm     84% 0.0 mm 0.00 W/m2
01:39 15.7 °C 13.0 °C 1020.2 hPa Calm     84% 0.0 mm 0.00 W/m2
01:44 15.6 °C 12.9 °C 1019.9 hPa WNW 1.6 km/h 1.6 km/h 84% 0.0 mm 0.00 W/m2
01:49 15.5 °C 12.8 °C 1019.9 hPa Calm     84% 0.0 mm 0.00 W/m2
01:54 15.5 °C 13.0 °C 1019.9 hPa Calm   1.6 km/h 85% 0.0 mm 0.00 W/m2
01:59 15.5 °C 13.0 °C 1019.9 hPa Calm     85% 0.0 mm 0.00 W/m2
02:04 15.4 °C 12.9 °C 1019.9 hPa Calm   1.6 km/h 85% 0.0 mm 0.00 W/m2
02:09 15.3 °C 12.8 °C 1019.9 hPa Calm   3.2 km/h 85% 0.0 mm 0.00 W/m2
02:14 15.2 °C 12.7 °C 1019.9 hPa WNW 3.2 km/h 3.2 km/h 85% 0.0 mm 0.00 W/m2
02:19 15.2 °C 12.7 °C 1020.2 hPa Calm   4.8 km/h 85% 0.0 mm 0.00 W/m2
02:24 15.0 °C 12.7 °C 1019.9 hPa WNW 1.4 km/h 3.2 km/h 86% 0.0 mm 0.00 W/m2
02:29 15.0 °C 12.7 °C 1019.9 hPa WNW 4.8 km/h 4.8 km/h 86% 0.0 mm 0.00 W/m2
02:34 14.9 °C 12.6 °C 1019.9 hPa Calm   3.2 km/h 86% 0.0 mm 0.00 W/m2
02:39 14.9 °C 12.6 °C 1019.9 hPa WNW 1.4 km/h 4.8 km/h 86% 0.0 mm 0.00 W/m2
02:44 14.8 °C 12.7 °C 1019.9 hPa WNW 1.4 km/h 3.2 km/h 87% 0.0 mm 0.00 W/m2
02:49 14.8 °C 12.7 °C 1019.9 hPa Calm   1.6 km/h 87% 0.0 mm 0.00 W/m2
02:54 14.8 °C 12.7 °C 1019.9 hPa Calm     87% 0.0 mm 0.00 W/m2
02:59 14.7 °C 12.6 °C 1019.9 hPa WNW 1.4 km/h 1.6 km/h 87% 0.0 mm 0.00 W/m2
03:04 14.7 °C 12.7 °C 1019.9 hPa Calm   1.6 km/h 88% 0.0 mm 0.00 W/m2
03:09 14.7 °C 12.7 °C 1019.9 hPa Calm   1.6 km/h 88% 0.0 mm 0.00 W/m2
03:14 14.7 °C 12.7 °C 1019.9 hPa Calm     88% 0.0 mm 0.00 W/m2
03:19 14.7 °C 12.7 °C 1019.9 hPa Calm     88% 0.0 mm 0.00 W/m2
03:24 14.7 °C 12.9 °C 1019.5 hPa Calm     89% 0.0 mm 0.00 W/m2
03:29 14.6 °C 12.8 °C 1019.5 hPa Calm     89% 0.0 mm 0.00 W/m2
03:34 14.5 °C 12.7 °C 1019.5 hPa Calm     89% 0.0 mm 0.00 W/m2
03:39 14.4 °C 12.6 °C 1019.5 hPa Calm     89% 0.0 mm 0.00 W/m2
03:44 14.4 °C 12.6 °C 1019.5 hPa Calm     89% 0.0 mm 0.00 W/m2
03:49 14.4 °C 12.8 °C 1019.5 hPa Calm     90% 0.0 mm 0.00 W/m2
03:54 14.3 °C 12.7 °C 1019.5 hPa Calm     90% 0.0 mm 0.00 W/m2
03:59 14.3 °C 12.7 °C 1019.5 hPa Calm     90% 0.0 mm 0.00 W/m2
04:04 14.3 °C 12.7 °C 1019.5 hPa Calm     90% 0.0 mm 0.00 W/m2
04:09 14.3 °C 12.7 °C 1019.5 hPa Calm     90% 0.0 mm 0.00 W/m2
04:14 14.4 °C 12.8 °C 1019.5 hPa Calm     90% 0.0 mm 0.00 W/m2
04:19 14.4 °C 12.8 °C 1019.5 hPa Calm     90% 0.0 mm 0.00 W/m2
04:24 14.7 °C 13.2 °C 1019.5 hPa Calm     91% 0.0 mm 0.00 W/m2
04:29 14.7 °C 13.2 °C 1019.2 hPa Calm     91% 0.0 mm 0.00 W/m2
04:34 14.7 °C 13.2 °C 1019.2 hPa Calm     91% 0.0 mm 0.00 W/m2
04:39 14.7 °C 13.2 °C 1019.2 hPa Calm     91% 0.0 mm 0.00 W/m2
04:44 14.7 °C 13.2 °C 1019.2 hPa Calm     91% 0.0 mm 0.00 W/m2
04:49 14.7 °C 13.2 °C 1019.2 hPa Calm     91% 0.0 mm 0.00 W/m2
04:54 14.7 °C 13.2 °C 1019.2 hPa Calm     91% 0.0 mm 0.00 W/m2
04:59 14.7 °C 13.2 °C 1019.2 hPa Calm     91% 0.0 mm 0.00 W/m2
05:04 14.7 °C 13.2 °C 1019.2 hPa Calm     91% 0.0 mm 0.00 W/m2
05:09 14.7 °C 13.2 °C 1019.2 hPa Calm     91% 0.0 mm 0.00 W/m2
05:14 14.7 °C 13.2 °C 1019.2 hPa Calm     91% 0.0 mm 5.00 W/m2
05:19 14.7 °C 13.2 °C 1019.2 hPa Calm     91% 0.0 mm 9.00 W/m2
05:24 14.7 °C 13.2 °C 1019.2 hPa Calm     91% 0.0 mm 11.00 W/m2
05:29 14.6 °C 13.1 °C 1019.2 hPa Calm     91% 0.0 mm 16.00 W/m2
05:34 14.6 °C 13.3 °C 1019.2 hPa Calm     92% 0.0 mm 21.00 W/m2
05:39 14.6 °C 13.3 °C 1019.2 hPa Calm     92% 0.0 mm 26.00 W/m2
05:44 14.6 °C 13.3 °C 1019.2 hPa Calm     92% 0.0 mm 30.00 W/m2
05:49 14.6 °C 13.3 °C 1019.2 hPa Calm     92% 0.0 mm 39.00 W/m2
05:54 14.7 °C 13.4 °C 1019.2 hPa Calm     92% 0.0 mm 46.00 W/m2
05:59 14.7 °C 13.4 °C 1019.2 hPa Calm     92% 0.0 mm 49.00 W/m2
06:04 14.7 °C 13.4 °C 1019.2 hPa Calm     92% 0.0 mm 42.00 W/m2
06:09 14.7 °C 13.4 °C 1019.2 hPa Calm     92% 0.0 mm 37.00 W/m2
06:14 14.7 °C 13.4 °C 1019.5 hPa Calm     92% 0.0 mm 30.00 W/m2
06:19 14.7 °C 13.4 °C 1019.2 hPa Calm     92% 0.0 mm 30.00 W/m2
06:24 14.7 °C 13.4 °C 1019.5 hPa Calm     92% 0.0 mm 42.00 W/m2
06:29 14.8 °C 13.5 °C 1019.5 hPa WNW 8.0 km/h 8.0 km/h 92% 0.0 mm 60.00 W/m2
06:34 14.9 °C 13.6 °C 1019.5 hPa WNW 3.2 km/h 6.4 km/h 92% 0.0 mm 67.00 W/m2
06:39 14.9 °C 13.6 °C 1019.5 hPa Calm   8.0 km/h 92% 0.0 mm 74.00 W/m2
06:44 15.0 °C 13.7 °C 1019.5 hPa West 6.4 km/h 9.7 km/h 92% 0.0 mm 79.00 W/m2
06:49 15.0 °C 13.7 °C 1019.5 hPa WNW 1.4 km/h 9.7 km/h 92% 0.0 mm 74.00 W/m2
06:54 15.0 °C 13.7 °C 1019.5 hPa West 3.2 km/h 9.7 km/h 92% 0.0 mm 63.00 W/m2
06:59 15.1 °C 13.8 °C 1019.5 hPa West 3.2 km/h 8.0 km/h 92% 0.0 mm 72.00 W/m2
07:04 15.2 °C 13.9 °C 1019.5 hPa WNW 6.4 km/h 9.7 km/h 92% 0.0 mm 60.00 W/m2
07:09 15.2 °C 13.9 °C 1019.5 hPa WNW 7.9 km/h 8.0 km/h 92% 0.0 mm 63.00 W/m2
07:14 15.2 °C 13.9 °C 1019.5 hPa WNW 1.4 km/h 8.0 km/h 92% 0.0 mm 86.00 W/m2
07:19 15.2 °C 13.9 °C 1019.5 hPa WNW 1.4 km/h 6.4 km/h 92% 0.0 mm 197.00 W/m2
07:24 15.4 °C 14.1 °C 1019.5 hPa West 4.7 km/h 8.0 km/h 92% 0.0 mm 156.00 W/m2
07:29 15.5 °C 14.2 °C 1019.5 hPa Calm   4.8 km/h 92% 0.0 mm 158.00 W/m2
07:34 15.5 °C 14.0 °C 1019.5 hPa West 7.9 km/h 12.9 km/h 91% 0.0 mm 178.00 W/m2
07:39 15.5 °C 14.0 °C 1019.5 hPa West 6.4 km/h 9.7 km/h 91% 0.0 mm 243.00 W/m2
07:44 15.7 °C 14.2 °C 1019.5 hPa West 7.9 km/h 11.3 km/h 91% 0.0 mm 257.00 W/m2
07:49 15.8 °C 14.3 °C 1019.5 hPa WNW 6.4 km/h 9.7 km/h 91% 0.0 mm 260.00 W/m2
07:54 16.0 °C 14.4 °C 1019.5 hPa WNW 3.2 km/h 4.8 km/h 90% 0.0 mm 276.00 W/m2
07:59 16.2 °C 14.6 °C 1019.5 hPa Calm   9.7 km/h 90% 0.0 mm 204.00 W/m2
08:04 16.4 °C 14.4 °C 1019.5 hPa WNW 11.1 km/h 12.9 km/h 88% 0.0 mm 160.00 W/m2
08:09 16.4 °C 14.2 °C 1019.5 hPa WNW 1.4 km/h 17.7 km/h 87% 0.0 mm 160.00 W/m2
08:14 16.5 °C 14.1 °C 1019.5 hPa WNW 4.7 km/h 11.3 km/h 86% 0.0 mm 160.00 W/m2
08:19 16.7 °C 14.3 °C 1019.5 hPa WNW 9.7 km/h 14.5 km/h 86% 0.0 mm 417.00 W/m2
08:24 16.9 °C 14.4 °C 1019.5 hPa NW 6.4 km/h 8.0 km/h 85% 0.0 mm 439.00 W/m2
08:29 17.3 °C 14.6 °C 1019.5 hPa WNW 4.7 km/h 16.1 km/h 84% 0.0 mm 216.00 W/m2
08:34 17.1 °C 14.0 °C 1019.5 hPa West 4.7 km/h 16.1 km/h 82% 0.0 mm 223.00 W/m2
08:39 17.3 °C 14.0 °C 1019.5 hPa West 7.9 km/h 12.9 km/h 81% 0.0 mm 264.00 W/m2
08:44 17.4 °C 13.9 °C 1019.5 hPa NNW 6.4 km/h 12.9 km/h 80% 0.0 mm 274.00 W/m2
08:49 17.4 °C 13.9 °C 1019.5 hPa West 16.1 km/h 16.1 km/h 80% 0.0 mm 271.00 W/m2
08:54 17.5 °C 14.0 °C 1019.5 hPa West 17.7 km/h 17.7 km/h 80% 0.0 mm 311.00 W/m2
08:59 17.8 °C 13.9 °C 1019.5 hPa NW 3.2 km/h 12.9 km/h 78% 0.0 mm 285.00 W/m2
09:04 17.7 °C 13.8 °C 1019.5 hPa West 6.4 km/h 12.9 km/h 78% 0.0 mm 236.00 W/m2
09:09 17.6 °C 13.7 °C 1019.5 hPa West 9.7 km/h 16.1 km/h 78% 0.0 mm 271.00 W/m2
09:14 17.9 °C 14.0 °C 1019.5 hPa NW 3.2 km/h 9.7 km/h 78% 0.0 mm 647.00 W/m2
09:19 18.2 °C 14.1 °C 1019.5 hPa West 17.7 km/h 17.7 km/h 77% 0.0 mm 626.00 W/m2
09:24 18.2 °C 14.1 °C 1019.5 hPa NW 6.4 km/h 16.1 km/h 77% 0.0 mm 689.00 W/m2
09:29 18.7 °C 14.4 °C 1019.5 hPa WSW 3.2 km/h 12.9 km/h 76% 0.0 mm 399.00 W/m2
09:34 18.9 °C 14.4 °C 1019.5 hPa NW 4.7 km/h 11.3 km/h 75% 0.0 mm 459.00 W/m2
09:39 18.7 °C 14.2 °C 1019.2 hPa West 14.3 km/h 17.7 km/h 75% 0.0 mm 643.00 W/m2
09:44 18.4 °C 13.9 °C 1019.2 hPa West 1.4 km/h 16.1 km/h 75% 0.0 mm 313.00 W/m2
09:49 18.3 °C 13.8 °C 1019.2 hPa WNW 13.0 km/h 14.5 km/h 75% 0.0 mm 443.00 W/m2
09:54 18.4 °C 13.9 °C 1019.2 hPa WNW 3.2 km/h 11.3 km/h 75% 0.0 mm 441.00 W/m2
09:59 18.3 °C 14.0 °C 1019.2 hPa NW 7.9 km/h 16.1 km/h 76% 0.0 mm 526.00 W/m2
10:04 18.7 °C 14.2 °C 1019.2 hPa WNW 4.7 km/h 12.9 km/h 75% 0.0 mm 506.00 W/m2
10:09 18.9 °C 14.0 °C 1019.2 hPa West 1.4 km/h 9.7 km/h 73% 0.0 mm 508.00 W/m2
10:14 19.2 °C 14.0 °C 1019.2 hPa West 6.4 km/h 12.9 km/h 72% 0.0 mm 527.00 W/m2
10:19 19.2 °C 14.0 °C 1018.8 hPa WSW 9.7 km/h 9.7 km/h 72% 0.0 mm 455.00 W/m2
10:24 19.4 °C 14.0 °C 1019.2 hPa WSW 1.4 km/h 6.4 km/h 71% 0.0 mm 633.00 W/m2
10:29 19.8 °C 14.4 °C 1019.2 hPa Calm   6.4 km/h 71% 0.0 mm 570.00 W/m2
10:34 19.9 °C 14.0 °C 1019.2 hPa Calm   6.4 km/h 69% 0.0 mm 758.00 W/m2
10:39 20.2 °C 14.6 °C 1019.2 hPa WNW 3.2 km/h 11.3 km/h 70% 0.0 mm 701.00 W/m2
10:44 20.0 °C 14.1 °C 1019.2 hPa Calm   11.3 km/h 69% 0.0 mm 707.00 W/m2
10:49 20.2 °C 14.1 °C 1018.8 hPa WNW 4.7 km/h 9.7 km/h 68% 0.0 mm 738.00 W/m2
10:54 20.3 °C 14.2 °C 1018.8 hPa SW 6.4 km/h 8.0 km/h 68% 0.0 mm 846.00 W/m2
10:59 20.2 °C 13.6 °C 1018.8 hPa NW 4.7 km/h 16.1 km/h 66% 0.0 mm 835.00 W/m2
11:04 20.3 °C 13.5 °C 1018.8 hPa WSW 7.9 km/h 20.9 km/h 65% 0.0 mm 835.00 W/m2
11:09 20.5 °C 13.5 °C 1018.8 hPa SW 9.7 km/h 12.9 km/h 64% 0.0 mm 833.00 W/m2
11:14 20.9 °C 13.6 °C 1018.8 hPa SW 9.7 km/h 16.1 km/h 63% 0.0 mm 810.00 W/m2
11:19 21.0 °C 14.4 °C 1018.8 hPa West 3.2 km/h 16.1 km/h 66% 0.0 mm 729.00 W/m2
11:24 21.5 °C 14.6 °C 1018.5 hPa WNW 11.1 km/h 14.5 km/h 65% 0.0 mm 450.00 W/m2
11:29 21.1 °C 14.5 °C 1018.5 hPa WNW 3.2 km/h 8.0 km/h 66% 0.0 mm 462.00 W/m2
11:34 21.5 °C 14.9 °C 1018.5 hPa WSW 6.4 km/h 11.3 km/h 66% 0.0 mm 563.00 W/m2
11:39 21.5 °C 14.6 °C 1018.8 hPa WNW 11.1 km/h 12.9 km/h 65% 0.0 mm 443.00 W/m2
11:44 20.9 °C 14.3 °C 1018.5 hPa WSW 6.4 km/h 11.3 km/h 66% 0.0 mm 448.00 W/m2
11:49 21.2 °C 14.6 °C 1018.5 hPa WNW 6.4 km/h 17.7 km/h 66% 0.0 mm 663.00 W/m2
11:54 21.5 °C 15.1 °C 1018.5 hPa WNW 9.7 km/h 11.3 km/h 67% 0.0 mm 765.00 W/m2
11:59 21.4 °C 14.5 °C 1018.5 hPa WNW 17.7 km/h 17.7 km/h 65% 0.0 mm 292.00 W/m2
12:04 21.4 °C 15.0 °C 1018.5 hPa WSW 13.0 km/h 16.1 km/h 67% 0.0 mm 248.00 W/m2
12:09 22.0 °C 15.1 °C 1018.5 hPa SW 6.4 km/h 12.9 km/h 65% 0.0 mm 912.00 W/m2
12:14 22.3 °C 15.4 °C 1018.5 hPa WNW 7.9 km/h 12.9 km/h 65% 0.0 mm 986.00 W/m2
12:19 22.2 °C 14.8 °C 1018.5 hPa WNW 17.7 km/h 17.7 km/h 63% 0.0 mm 877.00 W/m2
12:24 22.0 °C 14.4 °C 1018.5 hPa WNW 6.4 km/h 22.5 km/h 62% 0.0 mm 485.00 W/m2
12:29 22.2 °C 14.6 °C 1018.5 hPa West 9.7 km/h 16.1 km/h 62% 0.0 mm 1063.00 W/m2
12:34 22.8 °C 15.1 °C 1018.5 hPa West 20.9 km/h 20.9 km/h 62% 0.0 mm 886.00 W/m2
12:39 22.2 °C 14.3 °C 1018.2 hPa WSW 9.7 km/h 20.9 km/h 61% 0.0 mm 436.00 W/m2
12:44 22.6 °C 14.4 °C 1018.2 hPa WNW 9.7 km/h 12.9 km/h 60% 0.0 mm 889.00 W/m2
12:49 22.8 °C 13.8 °C 1018.2 hPa WSW 13.0 km/h 16.1 km/h 57% 0.0 mm 911.00 W/m2
12:54 22.7 °C 14.3 °C 1018.2 hPa WSW 13.0 km/h 22.5 km/h 59% 0.0 mm 905.00 W/m2
12:59 22.9 °C 14.7 °C 1018.2 hPa WSW 9.7 km/h 12.9 km/h 60% 0.0 mm 942.00 W/m2
13:04 23.3 °C 15.1 °C 1018.2 hPa WSW 9.7 km/h 11.3 km/h 60% 0.0 mm 886.00 W/m2
13:09 22.9 °C 14.7 °C 1018.2 hPa WSW 6.4 km/h 14.5 km/h 60% 0.0 mm 916.00 W/m2
13:14 22.9 °C 14.7 °C 1018.2 hPa West 7.9 km/h 14.5 km/h 60% 0.0 mm 624.00 W/m2
13:19 23.0 °C 14.8 °C 1018.2 hPa NW 6.4 km/h 20.9 km/h 60% 0.0 mm 413.00 W/m2
13:24 23.0 °C 14.8 °C 1017.8 hPa NW 7.9 km/h 11.3 km/h 60% 0.0 mm 397.00 W/m2
13:29 22.7 °C 14.8 °C 1017.8 hPa WNW 11.1 km/h 14.5 km/h 61% 0.0 mm 974.00 W/m2
13:34 23.2 °C 15.5 °C 1017.8 hPa WNW 7.9 km/h 11.3 km/h 62% 0.0 mm 984.00 W/m2
13:39 22.7 °C 14.5 °C 1017.8 hPa West 4.7 km/h 19.3 km/h 60% 0.0 mm 348.00 W/m2
13:44 22.9 °C 15.2 °C 1017.8 hPa Calm   9.7 km/h 62% 0.0 mm 492.00 W/m2
13:49 23.2 °C 15.0 °C 1017.5 hPa West 3.2 km/h 6.4 km/h 60% 0.0 mm 311.00 W/m2
13:54 23.0 °C 14.8 °C 1017.5 hPa WSW 11.1 km/h 11.3 km/h 60% 0.0 mm 332.00 W/m2
13:59 22.5 °C 14.9 °C 1017.5 hPa West 6.4 km/h 14.5 km/h 62% 0.0 mm 791.00 W/m2
14:04 23.2 °C 14.7 °C 1017.5 hPa NNW 14.3 km/h 17.7 km/h 59% 0.0 mm 840.00 W/m2
14:09 23.1 °C 14.9 °C 1017.2 hPa WSW 9.7 km/h 12.9 km/h 60% 0.0 mm 406.00 W/m2
14:14 23.5 °C 15.0 °C 1017.2 hPa WSW 6.4 km/h 9.7 km/h 59% 0.0 mm 733.00 W/m2
14:19 23.6 °C 14.3 °C 1017.2 hPa SW 6.4 km/h 9.7 km/h 56% 0.0 mm 473.00 W/m2
14:24 23.0 °C 14.3 °C 1017.2 hPa WSW 13.0 km/h 22.5 km/h 58% 0.0 mm 313.00 W/m2
14:29 23.6 °C 14.6 °C 1017.2 hPa West 13.0 km/h 16.1 km/h 57% 0.0 mm 691.00 W/m2
14:34 23.3 °C 14.8 °C 1016.8 hPa WNW 9.7 km/h 16.1 km/h 59% 0.0 mm 615.00 W/m2
14:39 23.2 °C 14.5 °C 1016.8 hPa WNW 6.4 km/h 19.3 km/h 58% 0.0 mm 341.00 W/m2
14:44 23.3 °C 14.8 °C 1016.8 hPa Calm   6.4 km/h 59% 0.0 mm 506.00 W/m2
14:49 23.5 °C 14.8 °C 1016.8 hPa Calm   9.7 km/h 58% 0.0 mm 290.00 W/m2
14:54 23.3 °C 14.8 °C 1016.8 hPa West 6.4 km/h 8.0 km/h 59% 0.0 mm 345.00 W/m2
14:59 23.6 °C 15.1 °C 1016.8 hPa Calm   6.4 km/h 59% 0.0 mm 323.00 W/m2
15:04 23.5 °C 14.5 °C 1016.5 hPa SSW 6.4 km/h 11.3 km/h 57% 0.0 mm 399.00 W/m2
15:09 23.3 °C 14.8 °C 1016.8 hPa NW 6.4 km/h 14.5 km/h 59% 0.0 mm 287.00 W/m2
15:14 23.0 °C 14.8 °C 1016.5 hPa WNW 4.7 km/h 9.7 km/h 60% 0.0 mm 220.00 W/m2
15:19 23.2 °C 14.7 °C 1016.5 hPa Calm   12.9 km/h 59% 0.0 mm 251.00 W/m2
15:24 23.4 °C 14.7 °C 1016.5 hPa West 16.1 km/h 16.1 km/h 58% 0.0 mm 271.00 W/m2
15:29 23.2 °C 14.5 °C 1016.5 hPa WSW 7.9 km/h 12.9 km/h 58% 0.0 mm 290.00 W/m2
15:34 23.3 °C 15.1 °C 1016.5 hPa WNW 13.0 km/h 12.9 km/h 60% 0.0 mm 663.00 W/m2
15:39 23.4 °C 15.2 °C 1016.5 hPa NW 4.7 km/h 19.3 km/h 60% 0.0 mm 766.00 W/m2
15:44 23.4 °C 15.2 °C 1016.5 hPa WNW 7.9 km/h 14.5 km/h 60% 0.0 mm 387.00 W/m2
15:49 23.4 °C 15.4 °C 1016.1 hPa NNW 7.9 km/h 12.9 km/h 61% 0.0 mm 410.00 W/m2
15:54 23.7 °C 15.5 °C 1016.1 hPa West 1.4 km/h 9.7 km/h 60% 0.0 mm 721.00 W/m2
15:59 23.9 °C 15.1 °C 1016.1 hPa WSW 6.4 km/h 6.4 km/h 58% 0.0 mm 272.00 W/m2
16:04 23.5 °C 15.0 °C 1016.5 hPa WNW 7.9 km/h 8.0 km/h 59% 0.0 mm 195.00 W/m2
16:09 23.3 °C 15.4 °C 1016.5 hPa WSW 14.5 km/h 14.5 km/h 61% 0.0 mm 134.00 W/m2
16:14 23.0 °C 15.1 °C 1016.5 hPa WNW 11.1 km/h 14.5 km/h 61% 0.0 mm 153.00 W/m2
16:19 22.8 °C 14.9 °C 1016.1 hPa West 4.7 km/h 9.7 km/h 61% 0.0 mm 169.00 W/m2
16:24 22.8 °C 14.9 °C 1016.5 hPa NW 6.4 km/h 11.3 km/h 61% 0.0 mm 214.00 W/m2
16:29 22.8 °C 14.9 °C 1016.5 hPa WNW 4.7 km/h 9.7 km/h 61% 0.0 mm 213.00 W/m2
16:34 22.9 °C 15.0 °C 1016.5 hPa WSW 6.4 km/h 11.3 km/h 61% 0.0 mm 394.00 W/m2
16:39 23.0 °C 14.8 °C 1016.1 hPa NW 4.7 km/h 11.3 km/h 60% 0.0 mm 385.00 W/m2
16:44 23.0 °C 14.8 °C 1016.1 hPa West 9.7 km/h 12.9 km/h 60% 0.0 mm 316.00 W/m2
16:49 23.0 °C 14.8 °C 1016.1 hPa West 1.4 km/h 12.9 km/h 60% 0.0 mm 241.00 W/m2
16:54 22.9 °C 14.7 °C 1016.1 hPa West 14.5 km/h 14.5 km/h 60% 0.0 mm 211.00 W/m2
16:59 22.7 °C 14.5 °C 1016.1 hPa NW 1.4 km/h 14.5 km/h 60% 0.0 mm 225.00 W/m2
17:04 22.8 °C 14.6 °C 1016.1 hPa West 7.9 km/h 11.3 km/h 60% 0.0 mm 338.00 W/m2
17:09 22.9 °C 14.5 °C 1016.1 hPa NW 7.9 km/h 11.3 km/h 59% 0.0 mm 464.00 W/m2
17:14 23.0 °C 14.0 °C 1016.1 hPa NW 11.1 km/h 16.1 km/h 57% 0.0 mm 457.00 W/m2
17:19 23.1 °C 14.4 °C 1016.1 hPa WNW 19.3 km/h 19.3 km/h 58% 0.0 mm 394.00 W/m2
17:24 22.9 °C 14.7 °C 1016.1 hPa WNW 13.0 km/h 20.9 km/h 60% 0.0 mm 478.00 W/m2
17:29 22.8 °C 14.9 °C 1016.1 hPa NNW 9.7 km/h 12.9 km/h 61% 0.0 mm 517.00 W/m2
17:34 22.8 °C 14.9 °C 1015.8 hPa NW 1.4 km/h 12.9 km/h 61% 0.0 mm 466.00 W/m2
17:39 23.0 °C 15.3 °C 1015.8 hPa NW 3.2 km/h 11.3 km/h 62% 0.0 mm 448.00 W/m2
17:44 23.0 °C 15.3 °C 1015.8 hPa WNW 9.7 km/h 16.1 km/h 62% 0.0 mm 434.00 W/m2
17:49 22.9 °C 15.5 °C 1015.8 hPa WNW 13.0 km/h 17.7 km/h 63% 0.0 mm 341.00 W/m2
17:54 22.5 °C 15.3 °C 1015.8 hPa NW 3.2 km/h 14.5 km/h 64% 0.0 mm 338.00 W/m2
17:59 22.5 °C 15.3 °C 1015.8 hPa WNW 11.1 km/h 17.7 km/h 64% 0.0 mm 279.00 W/m2
18:04 22.3 °C 15.2 °C 1015.8 hPa West 3.2 km/h 12.9 km/h 64% 0.0 mm 251.00 W/m2
18:09 22.0 °C 15.1 °C 1015.8 hPa NW 7.9 km/h 14.5 km/h 65% 0.0 mm 265.00 W/m2
18:14 22.1 °C 15.2 °C 1015.8 hPa NW 14.3 km/h 14.5 km/h 65% 0.0 mm 274.00 W/m2
18:19 22.0 °C 15.1 °C 1015.8 hPa WNW 6.4 km/h 19.3 km/h 65% 0.0 mm 255.00 W/m2
18:24 22.0 °C 15.1 °C 1015.5 hPa West 9.7 km/h 11.3 km/h 65% 0.0 mm 213.00 W/m2
18:29 21.8 °C 14.9 °C 1015.5 hPa WNW 16.1 km/h 16.1 km/h 65% 0.0 mm 227.00 W/m2
18:34 21.6 °C 14.7 °C 1015.5 hPa West 4.7 km/h 12.9 km/h 65% 0.0 mm 250.00 W/m2
18:39 21.6 °C 14.7 °C 1015.5 hPa West 4.7 km/h 11.3 km/h 65% 0.0 mm 229.00 W/m2
18:44 21.7 °C 14.6 °C 1015.5 hPa WNW 9.7 km/h 12.9 km/h 64% 0.0 mm 220.00 W/m2
18:48 21.7 °C 14.6 °C 1015.5 hPa WNW 4.7 km/h 14.5 km/h 64% 0.0 mm 200.00 W/m2
18:51 21.7 °C 14.3 °C 1015.5 hPa West 11.1 km/h 16.1 km/h 63% 0.0 mm 188.00 W/m2
18:56 21.5 °C 14.2 °C 1015.5 hPa NW 9.7 km/h 14.5 km/h 63% 0.0 mm 158.00 W/m2
18:59 21.4 °C 13.8 °C 1015.5 hPa NW 9.7 km/h 17.7 km/h 62% 0.0 mm 135.00 W/m2
19:03 21.3 °C 14.0 °C 1015.5 hPa West 13.0 km/h 16.1 km/h 63% 0.0 mm 125.00 W/m2
19:06 21.2 °C 13.9 °C 1015.5 hPa West 11.1 km/h 12.9 km/h 63% 0.0 mm 121.00 W/m2
19:10 21.2 °C 13.9 °C 1015.5 hPa NW 7.9 km/h 9.7 km/h 63% 0.0 mm 121.00 W/m2
19:13 21.2 °C 13.9 °C 1015.5 hPa North 9.7 km/h 12.9 km/h 63% 0.0 mm 123.00 W/m2
19:17 21.0 °C 13.7 °C 1015.5 hPa West 11.1 km/h 14.5 km/h 63% 0.0 mm 123.00 W/m2
19:21 20.9 °C 13.6 °C 1015.5 hPa WNW 4.7 km/h 14.5 km/h 63% 0.0 mm 121.00 W/m2
19:26 20.8 °C 13.5 °C 1015.5 hPa West 3.2 km/h 14.5 km/h 63% 0.0 mm 116.00 W/m2
19:29 20.9 °C 13.6 °C 1015.5 hPa WNW 6.4 km/h 11.3 km/h 63% 0.0 mm 111.00 W/m2
19:33 20.8 °C 13.3 °C 1015.5 hPa West 9.7 km/h 11.3 km/h 62% 0.0 mm 104.00 W/m2
19:37 20.7 °C 13.2 °C 1015.5 hPa West 9.7 km/h 14.5 km/h 62% 0.0 mm 95.00 W/m2
19:41 20.7 °C 13.2 °C 1015.5 hPa West 4.7 km/h 11.3 km/h 62% 0.0 mm 86.00 W/m2
19:45 20.6 °C 12.8 °C 1015.5 hPa WNW 7.9 km/h 12.9 km/h 61% 0.0 mm 79.00 W/m2
19:49 20.5 °C 13.0 °C 1015.5 hPa West 6.4 km/h 11.3 km/h 62% 0.0 mm 76.00 W/m2
19:53 20.4 °C 12.9 °C 1015.5 hPa West 4.7 km/h 14.5 km/h 62% 0.0 mm 65.00 W/m2
19:58 20.4 °C 13.1 °C 1015.1 hPa West 1.4 km/h 8.0 km/h 63% 0.0 mm 60.00 W/m2
20:02 20.4 °C 13.1 °C 1015.1 hPa West 6.4 km/h 8.0 km/h 63% 0.0 mm 58.00 W/m2
20:07 20.3 °C 13.0 °C 1015.1 hPa WNW 7.9 km/h 8.0 km/h 63% 0.0 mm 54.00 W/m2
20:11 20.2 °C 12.9 °C 1015.1 hPa NW 3.2 km/h 6.4 km/h 63% 0.0 mm 51.00 W/m2
20:15 20.1 °C 12.6 °C 1015.1 hPa WNW 1.4 km/h 14.5 km/h 62% 0.0 mm 47.00 W/m2
20:19 20.0 °C 12.5 °C 1015.1 hPa West 4.7 km/h 6.4 km/h 62% 0.0 mm 40.00 W/m2
20:22 20.0 °C 12.5 °C 1015.1 hPa West 1.4 km/h 9.7 km/h 62% 0.0 mm 32.00 W/m2
20:26 19.9 °C 12.6 °C 1015.1 hPa West 4.7 km/h 8.0 km/h 63% 0.0 mm 30.00 W/m2
20:31 19.7 °C 12.7 °C 1015.1 hPa West 3.2 km/h 8.0 km/h 64% 0.0 mm 30.00 W/m2
20:35 19.7 °C 12.7 °C 1015.1 hPa West 3.2 km/h 6.4 km/h 64% 0.0 mm 28.00 W/m2
20:39 19.5 °C 12.7 °C 1015.1 hPa West 6.4 km/h 8.0 km/h 65% 0.0 mm 26.00 W/m2
20:43 19.4 °C 12.9 °C 1015.1 hPa West 9.7 km/h 11.3 km/h 66% 0.0 mm 21.00 W/m2
20:46 19.4 °C 12.9 °C 1015.1 hPa West 6.4 km/h 9.7 km/h 66% 0.0 mm 19.00 W/m2
20:50 19.3 °C 12.8 °C 1015.1 hPa West 4.7 km/h 9.7 km/h 66% 0.0 mm 16.00 W/m2
20:56 19.2 °C 12.7 °C 1015.1 hPa West 3.2 km/h 6.4 km/h 66% 0.0 mm 16.00 W/m2
21:02 19.1 °C 12.6 °C 1015.1 hPa WSW 4.7 km/h 8.0 km/h 66% 0.0 mm 11.00 W/m2
21:06 18.9 °C 12.6 °C 1015.1 hPa WSW 3.2 km/h 6.4 km/h 67% 0.0 mm 9.00 W/m2
21:10 18.8 °C 12.5 °C 1015.1 hPa WNW 1.4 km/h 12.9 km/h 67% 0.0 mm 5.00 W/m2
21:15 18.7 °C 12.4 °C 1015.1 hPa West 3.2 km/h 11.3 km/h 67% 0.0 mm 0.00 W/m2
21:20 18.7 °C 12.4 °C 1015.1 hPa West 1.4 km/h 6.4 km/h 67% 0.0 mm 0.00 W/m2
21:24 18.5 °C 12.3 °C 1015.1 hPa West 6.4 km/h 8.0 km/h 67% 0.0 mm 0.00 W/m2
21:28 18.5 °C 12.5 °C 1015.1 hPa WNW 9.7 km/h 9.7 km/h 68% 0.0 mm 0.00 W/m2
21:32 18.4 °C 12.4 °C 1015.1 hPa West 4.7 km/h 8.0 km/h 68% 0.0 mm 0.00 W/m2
21:36 18.3 °C 12.3 °C 1015.1 hPa WNW 4.7 km/h 8.0 km/h 68% 0.0 mm 0.00 W/m2
21:40 18.2 °C 12.4 °C 1015.1 hPa WNW 6.4 km/h 11.3 km/h 69% 0.0 mm 0.00 W/m2
21:43 18.0 °C 12.2 °C 1015.5 hPa WNW 4.7 km/h 11.3 km/h 69% 0.0 mm 0.00 W/m2
21:47 18.0 °C 12.2 °C 1015.5 hPa West 4.7 km/h 9.7 km/h 69% 0.0 mm 0.00 W/m2
21:51 17.9 °C 12.1 °C 1015.5 hPa West 1.4 km/h 3.2 km/h 69% 0.0 mm 0.00 W/m2
21:52 17.9 °C 12.1 °C 1015.5 hPa West 3.2 km/h 4.8 km/h 69% 0.0 mm 0.00 W/m2
22:54 17.1 °C 11.6 °C 1015.1 hPa West 1.4 km/h 3.2 km/h 70% 0.0 mm 0.00 W/m2
22:59 17.1 °C 11.6 °C 1015.1 hPa West 1.4 km/h 3.2 km/h 70% 0.0 mm 0.00 W/m2
23:04 17.0 °C 11.7 °C 1015.1 hPa West 3.2 km/h 4.8 km/h 71% 0.0 mm 0.00 W/m2
23:09 16.9 °C 11.6 °C 1015.1 hPa West 4.7 km/h 6.4 km/h 71% 0.0 mm 0.00 W/m2
23:14 16.9 °C 11.6 °C 1015.1 hPa West 4.7 km/h 8.0 km/h 71% 0.0 mm 0.00 W/m2
23:19 16.8 °C 11.7 °C 1015.1 hPa West 1.4 km/h 4.8 km/h 72% 0.0 mm 0.00 W/m2
23:24 16.8 °C 11.7 °C 1015.1 hPa West 4.7 km/h 8.0 km/h 72% 0.0 mm 0.00 W/m2
23:29 16.7 °C 11.4 °C 1015.1 hPa West 4.7 km/h 4.8 km/h 71% 0.0 mm 0.00 W/m2
23:34 16.6 °C 11.3 °C 1015.1 hPa West 1.4 km/h 6.4 km/h 71% 0.0 mm 0.00 W/m2
23:39 16.5 °C 11.2 °C 1015.1 hPa Calm   1.6 km/h 71% 0.0 mm 0.00 W/m2
23:44 16.5 °C 11.2 °C 1015.1 hPa Calm   1.6 km/h 71% 0.0 mm 0.00 W/m2
23:49 16.5 °C 11.2 °C 1015.1 hPa West 3.2 km/h 4.8 km/h 71% 0.0 mm 0.00 W/m2
23:54 16.4 °C 11.1 °C 1015.1 hPa West 3.2 km/h 4.8 km/h 71% 0.0 mm 0.00 W/m2
23:59 16.4 °C 11.1 °C 1015.1 hPa West 4.7 km/h 6.4 km/h 71% 0.0 mm 0.00 W/m2